Alban, Wisconsin
Current Conditions -  °F | °C
As of 7:15 PM on Tuesday 21 Oct 2014 (Local Time) from KSTE Reporting Station
Clear Clear  
Wind Chill:   Ceiling: Unl
Heat Index:   Visibility: 10mi
Dew Point:   Wind: 0mph
Humidity: 85%   Direction: NA
Pressure: 30.25"   Gusts: NA
Location:  44.6794°N, 89.3392°W
Report Text: KSTE 220015Z AUTO 00000KT 10SM CLR 04/01 A3025 RMK AO2 T00350012
Loading
Personal Weather Stations






























Interactive Weather Map
Tropical Storm Tracking
New forecast layout! Learn more

10-Day Weather Forecast

Advertisements
Track Severe Weather on mobile